Time;durP1;ratioP1;P1;durP2;ratioP2;P2;SDS_P1;SDS_P2;PMS_P1;PMS_P2;Temp;Humidity;BMP_temperature;BMP_pressure;BME280_temperature;BME280_humidity;BME280_pressure;Samples;Min_cycle;Max_cycle;Signal;HPM_P1;HPM_P2
2023/07/18 00:01:45;;;;;;;4.83;3.00;;;16.20;99.90;;;;;;5008385;28;21115;-69
2023/07/18 00:04:13;;;;;;;3.07;2.60;;;16.20;99.90;;;;;;5009214;28;20880;-70
2023/07/18 00:06:44;;;;;;;4.57;2.30;;;16.00;99.90;;;;;;5007916;28;20525;-70
2023/07/18 00:09:11;;;;;;;5.07;2.50;;;16.00;99.90;;;;;;5009965;28;20515;-69
2023/07/18 00:11:39;;;;;;;2.70;2.30;;;15.90;99.90;;;;;;5009727;28;20455;-69
2023/07/18 00:14:08;;;;;;;4.47;2.33;;;15.70;99.90;;;;;;5004741;28;20561;-69
2023/07/18 00:16:36;;;;;;;4.57;2.57;;;15.70;99.90;;;;;;5010000;28;20484;-69
2023/07/18 00:19:04;;;;;;;4.80;2.60;;;15.70;99.90;;;;;;5009294;28;20457;-70
2023/07/18 00:21:32;;;;;;;5.43;3.47;;;15.80;99.90;;;;;;5009826;28;20461;-69
2023/07/18 00:24:02;;;;;;;5.77;2.93;;;15.70;99.90;;;;;;5009372;28;20947;-69
2023/07/18 00:26:30;;;;;;;3.80;2.67;;;15.60;99.90;;;;;;5010429;28;20442;-69
2023/07/18 00:28:58;;;;;;;3.83;2.63;;;15.60;99.90;;;;;;5010018;28;20453;-69
2023/07/18 00:31:27;;;;;;;3.83;2.87;;;15.50;99.90;;;;;;5009818;28;20442;-69
2023/07/18 00:33:55;;;;;;;4.77;2.63;;;15.40;99.90;;;;;;5009460;28;20516;-69
2023/07/18 00:36:22;;;;;;;5.87;3.27;;;15.40;99.90;;;;;;5009449;28;20935;-69
2023/07/18 00:38:50;;;;;;;5.20;3.13;;;15.30;99.90;;;;;;4994611;28;20592;-70
2023/07/18 00:41:20;;;;;;;4.00;2.83;;;15.30;99.90;;;;;;4998372;28;20455;-70
2023/07/18 00:43:48;;;;;;;5.13;2.90;;;15.30;99.90;;;;;;5027338;28;21313;-71
2023/07/18 00:46:16;;;;;;;6.60;3.23;;;15.30;99.90;;;;;;5028460;28;20504;-69
2023/07/18 00:48:45;;;;;;;3.63;2.70;;;15.40;99.90;;;;;;5028692;28;20457;-70
2023/07/18 00:51:13;;;;;;;3.70;3.00;;;15.30;99.90;;;;;;5030228;28;20445;-70
2023/07/18 00:53:41;;;;;;;5.40;3.00;;;15.20;99.90;;;;;;5020964;28;20446;-70
2023/07/18 00:56:10;;;;;;;4.80;2.80;;;15.30;99.90;;;;;;5008138;28;20496;-70
2023/07/18 00:58:40;;;;;;;4.60;2.90;;;15.30;99.90;;;;;;5010185;28;20509;-71
2023/07/18 01:01:08;;;;;;;7.10;3.77;;;15.20;99.90;;;;;;5009313;28;20465;-69
2023/07/18 01:03:37;;;;;;;4.83;3.03;;;15.20;99.90;;;;;;5008788;28;20475;-70
2023/07/18 01:06:05;;;;;;;5.00;3.23;;;15.00;99.90;;;;;;5009082;28;20992;-69
2023/07/18 01:08:33;;;;;;;4.90;3.40;;;15.00;99.90;;;;;;5009174;28;20524;-70
2023/07/18 01:11:01;;;;;;;5.20;3.60;;;14.90;99.90;;;;;;5008606;28;20467;-71
2023/07/18 01:13:29;;;;;;;10.90;3.50;;;14.80;99.90;;;;;;5008928;28;20511;-70
2023/07/18 01:15:59;;;;;;;7.40;3.83;;;14.70;99.90;;;;;;5009442;28;20993;-69
2023/07/18 01:18:26;;;;;;;8.40;4.23;;;14.80;99.90;;;;;;5009161;28;20500;-69
2023/07/18 01:20:56;;;;;;;6.90;3.57;;;14.80;99.90;;;;;;5009138;28;20462;-70
2023/07/18 01:23:25;;;;;;;6.33;3.70;;;14.80;99.90;;;;;;5008696;28;20451;-69
2023/07/18 01:25:54;;;;;;;6.60;3.80;;;14.70;99.90;;;;;;5003815;28;20877;-69
2023/07/18 01:28:22;;;;;;;5.83;3.50;;;14.80;99.90;;;;;;5004849;28;20977;-70
2023/07/18 01:30:50;;;;;;;5.20;3.50;;;14.80;99.90;;;;;;5009119;28;20504;-67
2023/07/18 01:33:18;;;;;;;5.57;3.40;;;14.90;99.90;;;;;;5009339;28;20454;-69
2023/07/18 01:35:46;;;;;;;7.00;3.80;;;14.80;99.90;;;;;;5009174;28;21035;-68
2023/07/18 01:38:14;;;;;;;5.20;3.70;;;14.80;99.90;;;;;;5009481;28;20446;-69
2023/07/18 01:40:43;;;;;;;6.60;3.30;;;14.70;99.90;;;;;;5021211;28;20458;-69
2023/07/18 01:43:11;;;;;;;4.50;2.97;;;14.70;99.90;;;;;;5020679;28;21038;-69
2023/07/18 01:45:39;;;;;;;6.37;3.30;;;14.70;99.90;;;;;;5009309;28;20512;-70
2023/07/18 01:48:07;;;;;;;8.07;4.30;;;14.70;99.90;;;;;;5008867;28;20460;-69
2023/07/18 01:50:35;;;;;;;8.20;4.10;;;14.60;99.90;;;;;;5009121;28;20524;-71
2023/07/18 01:53:03;;;;;;;6.57;3.67;;;14.50;99.90;;;;;;4989287;28;20451;-71
2023/07/18 01:55:31;;;;;;;6.50;3.77;;;14.60;99.90;;;;;;5010469;28;20481;-71
2023/07/18 01:58:01;;;;;;;5.20;3.03;;;14.60;99.90;;;;;;5011065;28;20543;-69
2023/07/18 02:00:30;;;;;;;4.30;3.77;;;14.50;99.90;;;;;;5008540;28;20974;-69
2023/07/18 02:02:58;;;;;;;5.07;3.50;;;14.60;99.90;;;;;;5007275;28;20879;-69
2023/07/18 02:05:29;;;;;;;8.57;5.07;;;14.50;99.90;;;;;;4999462;28;20446;-69
2023/07/18 02:07:58;;;;;;;7.53;3.67;;;14.30;99.90;;;;;;5011027;28;20533;-70
2023/07/18 02:10:27;;;;;;;8.70;3.90;;;14.30;99.90;;;;;;5012206;28;20904;-69
2023/07/18 02:12:57;;;;;;;4.67;3.63;;;14.30;99.90;;;;;;5012276;28;20437;-70
2023/07/18 02:15:26;;;;;;;5.30;3.13;;;14.20;99.90;;;;;;4992245;28;20488;-69
2023/07/18 02:17:54;;;;;;;5.00;4.00;;;14.10;99.90;;;;;;4992765;28;20442;-70
2023/07/18 02:20:23;;;;;;;5.70;4.00;;;14.10;99.90;;;;;;4992659;28;20474;-70
2023/07/18 02:22:51;;;;;;;5.23;3.73;;;14.10;99.90;;;;;;4995487;28;20874;-70
2023/07/18 02:25:19;;;;;;;5.43;3.90;;;14.00;99.90;;;;;;5009865;28;20508;-70
2023/07/18 02:27:47;;;;;;;5.00;4.07;;;14.10;99.90;;;;;;5011947;28;20461;-70
2023/07/18 02:30:15;;;;;;;6.67;3.90;;;14.20;99.90;;;;;;5012215;28;21290;-70
2023/07/18 02:32:45;;;;;;;4.37;3.77;;;14.20;99.90;;;;;;5008506;28;20470;-70
2023/07/18 02:35:17;;;;;;;5.27;3.40;;;14.20;99.90;;;;;;5011679;28;20536;-70
2023/07/18 02:37:46;;;;;;;6.73;3.97;;;14.20;99.90;;;;;;5013350;28;20455;-71
2023/07/18 02:40:15;;;;;;;5.53;4.07;;;14.10;99.90;;;;;;5013620;28;20468;-70
2023/07/18 02:42:43;;;;;;;5.70;3.70;;;14.10;99.90;;;;;;5012226;28;20790;-70
2023/07/18 02:45:12;;;;;;;5.47;4.00;;;14.00;99.90;;;;;;5006692;28;20488;-68
2023/07/18 02:47:40;;;;;;;6.60;3.77;;;14.10;99.90;;;;;;5011871;28;20445;-71
2023/07/18 02:50:10;;;;;;;6.40;4.23;;;14.00;99.90;;;;;;5011836;28;20457;-70
2023/07/18 02:52:39;;;;;;;8.73;3.90;;;13.90;99.90;;;;;;5011296;28;20493;-71
2023/07/18 02:55:08;;;;;;;5.77;3.77;;;13.80;99.90;;;;;;5009101;28;20471;-70
2023/07/18 02:57:36;;;;;;;4.93;3.93;;;13.90;99.90;;;;;;5011673;28;20508;-69
2023/07/18 03:00:10;;;;;;;5.33;3.70;;;14.00;99.90;;;;;;5011853;28;20465;-69
2023/07/18 03:02:41;;;;;;;5.27;3.70;;;14.00;99.90;;;;;;5011382;28;20540;-70
2023/07/18 03:05:11;;;;;;;5.83;3.67;;;13.90;99.90;;;;;;5011878;28;20520;-69
2023/07/18 03:07:39;;;;;;;4.83;3.30;;;14.00;99.90;;;;;;5012125;28;20442;-71
2023/07/18 03:10:08;;;;;;;4.73;4.00;;;13.80;99.90;;;;;;5010937;28;20486;-68
2023/07/18 03:12:35;;;;;;;5.77;3.73;;;13.70;99.90;;;;;;5011600;28;20443;-69
2023/07/18 03:15:04;;;;;;;5.27;3.90;;;13.70;99.90;;;;;;5011399;28;20450;-70
2023/07/18 03:17:32;;;;;;;3.93;3.27;;;13.70;99.90;;;;;;5008104;28;20454;-69
2023/07/18 03:20:00;;;;;;;7.53;4.13;;;13.70;99.90;;;;;;5010724;28;20902;-69
2023/07/18 03:22:29;;;;;;;5.77;3.60;;;13.60;99.90;;;;;;5011099;28;21184;-69
2023/07/18 03:25:05;;;;;;;7.17;4.27;;;13.70;99.90;;;;;;5011360;28;20854;-70
2023/07/18 03:27:33;;;;;;;5.10;4.23;;;13.60;99.90;;;;;;5007063;28;20449;-69
2023/07/18 03:30:00;;;;;;;5.90;3.20;;;13.60;99.90;;;;;;5011196;28;20548;-70
2023/07/18 03:32:28;;;;;;;5.43;3.53;;;13.60;99.90;;;;;;5010556;28;20489;-70
2023/07/18 03:34:56;;;;;;;5.77;4.13;;;13.60;99.90;;;;;;5011175;28;20508;-70
2023/07/18 03:37:29;;;;;;;6.60;3.80;;;13.50;99.90;;;;;;5011690;28;20435;-70
2023/07/18 03:39:56;;;;;;;5.97;3.83;;;13.40;99.90;;;;;;5009287;28;20515;-69
2023/07/18 03:42:24;;;;;;;3.93;3.33;;;13.50;99.90;;;;;;5008202;28;20954;-69
2023/07/18 03:44:52;;;;;;;6.33;4.47;;;13.50;99.90;;;;;;5007961;28;20521;-69
2023/07/18 03:47:20;;;;;;;5.67;4.10;;;13.50;99.90;;;;;;5030997;28;20487;-71
2023/07/18 03:49:48;;;;;;;8.13;4.17;;;13.50;99.90;;;;;;5031019;28;20486;-71
2023/07/18 03:52:16;;;;;;;7.27;4.37;;;13.40;99.90;;;;;;5015521;28;20457;-71
2023/07/18 03:54:46;;;;;;;6.33;4.40;;;13.30;99.90;;;;;;5010820;28;20485;-70
2023/07/18 03:57:14;;;;;;;6.03;4.20;;;13.50;99.90;;;;;;5009041;28;20477;-69
2023/07/18 03:59:42;;;;;;;5.97;4.50;;;13.50;99.90;;;;;;5008255;28;20531;-70
2023/07/18 04:02:12;;;;;;;8.10;4.10;;;13.50;99.90;;;;;;5010406;28;20499;-69
2023/07/18 04:04:41;;;;;;;6.57;3.57;;;13.50;99.90;;;;;;5010421;28;20869;-70
2023/07/18 04:07:09;;;;;;;9.37;4.37;;;13.50;99.90;;;;;;5009024;28;20469;-68
2023/07/18 04:09:37;;;;;;;6.10;4.27;;;13.30;99.90;;;;;;5010794;28;20520;-68
2023/07/18 04:12:07;;;;;;;6.20;4.03;;;13.40;99.90;;;;;;5010891;28;20484;-68
2023/07/18 04:14:35;;;;;;;5.30;4.67;;;13.50;99.90;;;;;;5010297;28;20451;-67
2023/07/18 04:17:04;;;;;;;6.20;3.73;;;13.60;99.90;;;;;;5011433;28;20519;-67
2023/07/18 04:19:32;;;;;;;6.00;3.87;;;13.60;99.90;;;;;;5011186;28;20559;-67
2023/07/18 04:22:00;;;;;;;8.17;4.10;;;13.50;99.90;;;;;;5010990;28;20877;-67
2023/07/18 04:24:28;;;;;;;5.57;4.50;;;13.60;99.90;;;;;;5010727;28;20491;-67
2023/07/18 04:26:56;;;;;;;6.60;4.80;;;13.90;99.90;;;;;;5009543;28;20453;-68
2023/07/18 04:29:26;;;;;;;5.00;4.40;;;14.00;99.90;;;;;;5010677;28;20505;-67
2023/07/18 04:31:54;;;;;;;6.23;4.03;;;14.10;99.90;;;;;;5011149;28;20449;-66
2023/07/18 04:34:24;;;;;;;5.17;3.73;;;14.20;99.90;;;;;;5010930;28;20480;-69
2023/07/18 04:36:52;;;;;;;4.30;3.73;;;14.20;99.90;;;;;;5010100;28;20473;-68
2023/07/18 04:39:20;;;;;;;5.00;4.13;;;14.20;99.90;;;;;;4989972;28;20554;-72
2023/07/18 04:41:48;;;;;;;5.20;4.50;;;14.20;99.90;;;;;;4990596;28;20458;-67
2023/07/18 04:44:23;;;;;;;5.53;4.13;;;14.30;99.90;;;;;;4990268;28;20456;-68
2023/07/18 04:46:53;;;;;;;5.30;3.97;;;14.40;99.90;;;;;;5003238;28;20838;-70
2023/07/18 04:49:24;;;;;;;6.73;3.87;;;14.50;99.90;;;;;;5007165;28;20877;-67
2023/07/18 04:51:53;;;;;;;5.27;3.97;;;14.60;99.90;;;;;;5009630;28;20442;-68
2023/07/18 04:54:21;;;;;;;5.20;4.30;;;14.70;99.90;;;;;;5006275;28;20446;-68
2023/07/18 04:56:53;;;;;;;7.13;4.70;;;14.80;99.90;;;;;;5005329;28;20482;-68
2023/07/18 04:59:22;;;;;;;6.57;3.70;;;14.80;99.90;;;;;;5002488;28;20996;-70
2023/07/18 05:01:54;;;;;;;5.57;3.87;;;14.80;99.90;;;;;;4997900;28;20723;-69
2023/07/18 05:04:22;;;;;;;5.80;4.37;;;14.90;99.90;;;;;;5003068;28;20465;-68
2023/07/18 05:06:50;;;;;;;5.93;4.17;;;14.90;99.90;;;;;;5004856;28;20463;-69
2023/07/18 05:09:18;;;;;;;7.13;4.77;;;14.90;99.90;;;;;;5005458;28;20474;-70
2023/07/18 05:11:47;;;;;;;5.70;4.00;;;15.00;99.90;;;;;;4995035;28;20452;-69
2023/07/18 05:14:15;;;;;;;7.07;4.40;;;15.00;99.90;;;;;;5001084;28;21227;-68
2023/07/18 05:16:43;;;;;;;4.27;3.87;;;15.00;99.90;;;;;;5009442;28;20680;-68
2023/07/18 05:19:12;;;;;;;5.37;4.10;;;15.10;99.90;;;;;;5007891;28;20502;-70
2023/07/18 05:21:40;;;;;;;8.87;4.53;;;15.10;99.90;;;;;;5003237;28;20945;-68
2023/07/18 05:24:08;;;;;;;8.97;5.10;;;15.20;99.90;;;;;;5001412;28;21069;-67
2023/07/18 05:26:36;;;;;;;6.07;4.30;;;15.30;99.90;;;;;;5001986;28;20502;-68
2023/07/18 05:29:04;;;;;;;4.40;4.00;;;15.40;99.90;;;;;;5008799;28;20950;-69
2023/07/18 05:31:32;;;;;;;6.70;4.27;;;15.50;99.90;;;;;;5009887;28;20872;-68
2023/07/18 05:34:00;;;;;;;6.93;4.57;;;15.60;99.90;;;;;;5009643;28;20457;-69
2023/07/18 05:36:29;;;;;;;5.30;4.30;;;15.80;99.90;;;;;;5009125;28;20482;-69
2023/07/18 05:38:57;;;;;;;6.00;4.23;;;15.70;99.90;;;;;;5009652;28;20958;-71
2023/07/18 05:41:25;;;;;;;4.90;4.40;;;15.80;99.90;;;;;;5009797;28;20446;-70
2023/07/18 05:43:53;;;;;;;6.83;4.23;;;16.10;99.90;;;;;;5005104;28;20455;-68
2023/07/18 05:46:21;;;;;;;11.87;4.63;;;16.10;99.90;;;;;;4994322;28;20971;-68
2023/07/18 05:48:49;;;;;;;8.23;4.57;;;16.20;99.90;;;;;;4994030;28;20482;-68
2023/07/18 05:51:18;;;;;;;5.93;3.97;;;16.30;99.90;;;;;;4999264;28;20460;-68
2023/07/18 05:53:48;;;;;;;8.07;4.27;;;16.30;99.90;;;;;;5013056;28;20442;-68
2023/07/18 05:56:16;;;;;;;13.03;4.07;;;16.50;99.90;;;;;;5012795;28;20800;-69
2023/07/18 05:58:44;;;;;;;6.90;3.90;;;16.60;99.90;;;;;;5013039;28;20451;-71
2023/07/18 06:01:12;;;;;;;5.77;4.87;;;16.60;99.90;;;;;;5012932;28;21158;-69
2023/07/18 06:03:40;;;;;;;4.63;4.03;;;16.60;99.90;;;;;;5013102;28;20862;-68
2023/07/18 06:06:09;;;;;;;4.57;3.90;;;16.80;99.90;;;;;;5001155;28;20541;-69
2023/07/18 06:08:37;;;;;;;5.00;4.50;;;16.90;99.90;;;;;;4993228;28;20978;-68
2023/07/18 06:11:06;;;;;;;6.30;4.10;;;16.90;99.90;;;;;;4993541;28;20835;-68
2023/07/18 06:13:34;;;;;;;6.80;4.60;;;17.00;99.90;;;;;;4993214;28;20447;-68
2023/07/18 06:16:02;;;;;;;6.30;4.83;;;17.00;99.90;;;;;;4993414;28;21092;-68
2023/07/18 06:18:30;;;;;;;4.80;4.30;;;17.20;99.90;;;;;;4993239;28;20481;-67
2023/07/18 06:21:00;;;;;;;5.87;4.40;;;17.20;99.90;;;;;;4994134;28;20552;-67
2023/07/18 06:23:29;;;;;;;6.10;4.83;;;17.40;99.90;;;;;;4993027;28;20796;-69
2023/07/18 06:25:57;;;;;;;7.43;4.80;;;17.40;99.90;;;;;;4993297;28;20856;-70
2023/07/18 06:28:26;;;;;;;5.40;3.90;;;17.50;99.90;;;;;;4993089;28;20478;-69
2023/07/18 06:30:55;;;;;;;6.40;4.20;;;17.50;99.90;;;;;;4993182;28;20463;-70
2023/07/18 06:33:24;;;;;;;6.70;4.20;;;17.70;99.90;;;;;;4992592;28;20533;-70
2023/07/18 06:35:52;;;;;;;6.57;3.47;;;17.80;99.90;;;;;;4993131;28;20493;-71
2023/07/18 06:38:21;;;;;;;6.33;4.23;;;18.00;99.90;;;;;;4994329;28;20483;-71
2023/07/18 06:40:49;;;;;;;5.50;3.90;;;18.00;99.90;;;;;;4993048;28;20467;-71
2023/07/18 06:43:17;;;;;;;5.27;3.90;;;18.10;99.90;;;;;;4992559;28;20454;-70
2023/07/18 06:45:48;;;;;;;7.70;3.67;;;18.30;99.90;;;;;;4992815;28;20450;-69
2023/07/18 06:48:16;;;;;;;6.40;3.90;;;18.40;99.90;;;;;;4992627;28;20467;-70
2023/07/18 06:50:46;;;;;;;7.97;4.17;;;18.50;99.90;;;;;;4992896;28;20483;-71
2023/07/18 06:53:16;;;;;;;6.57;4.07;;;18.60;99.90;;;;;;4992008;28;20808;-71
2023/07/18 06:55:44;;;;;;;6.57;3.80;;;18.60;99.90;;;;;;4993836;28;20455;-70
2023/07/18 06:58:12;;;;;;;6.93;4.07;;;18.70;99.90;;;;;;4992553;28;20483;-68
2023/07/18 07:00:41;;;;;;;7.43;3.80;;;18.80;99.90;;;;;;4992392;28;20465;-68
2023/07/18 07:03:10;;;;;;;6.23;3.83;;;18.90;99.90;;;;;;4992353;28;20870;-70
2023/07/18 07:05:39;;;;;;;3.80;3.33;;;19.00;99.90;;;;;;4992717;28;20486;-69
2023/07/18 07:08:08;;;;;;;4.93;3.50;;;19.10;99.90;;;;;;4992432;28;20977;-70
2023/07/18 07:10:38;;;;;;;6.53;3.03;;;19.20;99.90;;;;;;4995840;28;20548;-71
2023/07/18 07:13:06;;;;;;;6.70;3.93;;;19.30;99.90;;;;;;5011433;28;20821;-71
2023/07/18 07:15:34;;;;;;;5.43;2.77;;;19.40;99.90;;;;;;5012064;28;20488;-71
2023/07/18 07:18:03;;;;;;;5.93;3.57;;;19.50;99.90;;;;;;5012062;28;20509;-70
2023/07/18 07:20:34;;;;;;;3.10;2.70;;;19.60;99.90;;;;;;5012013;28;20450;-71
2023/07/18 07:23:02;;;;;;;7.70;3.20;;;19.70;99.90;;;;;;5011635;28;20477;-71
2023/07/18 07:25:31;;;;;;;5.37;2.33;;;19.80;99.80;;;;;;5011715;28;20492;-71
2023/07/18 07:27:59;;;;;;;5.23;3.27;;;19.90;99.90;;;;;;5001678;28;20842;-69
2023/07/18 07:30:27;;;;;;;4.60;2.73;;;20.00;99.00;;;;;;4992142;28;20481;-69
2023/07/18 07:32:55;;;;;;;6.70;2.93;;;20.20;99.80;;;;;;4992031;28;20446;-69
2023/07/18 07:35:23;;;;;;;4.40;2.83;;;20.30;99.40;;;;;;4992350;28;20446;-70
2023/07/18 07:37:55;;;;;;;4.30;2.60;;;20.40;98.00;;;;;;4992119;28;20481;-69
2023/07/18 07:40:23;;;;;;;3.23;2.43;;;20.60;95.20;;;;;;4992371;28;20462;-70
2023/07/18 07:42:51;;;;;;;3.10;2.80;;;20.80;95.20;;;;;;5006559;28;20446;-70
2023/07/18 07:45:21;;;;;;;5.10;3.23;;;21.00;94.00;;;;;;5011391;28;20499;-69
2023/07/18 07:47:49;;;;;;;4.43;2.57;;;21.10;94.60;;;;;;5011535;28;20820;-71
2023/07/18 07:50:17;;;;;;;6.87;2.67;;;21.20;95.20;;;;;;5011337;28;20504;-71
2023/07/18 07:52:45;;;;;;;5.70;3.13;;;21.30;94.00;;;;;;5008400;28;20628;-69
2023/07/18 07:55:14;;;;;;;5.97;2.90;;;21.40;92.90;;;;;;5011010;28;20453;-71
2023/07/18 07:57:43;;;;;;;5.30;3.00;;;21.50;93.30;;;;;;5011008;28;20625;-70
2023/07/18 08:00:12;;;;;;;3.53;2.50;;;21.70;91.30;;;;;;5011125;28;20465;-68
2023/07/18 08:02:40;;;;;;;4.30;2.80;;;21.80;90.50;;;;;;5004672;28;20453;-70
2023/07/18 08:05:09;;;;;;;5.03;2.57;;;21.90;89.40;;;;;;4999707;28;20548;-69
2023/07/18 08:07:39;;;;;;;5.37;3.27;;;22.10;89.40;;;;;;5003773;28;20440;-69
2023/07/18 08:10:08;;;;;;;4.37;2.93;;;22.20;90.20;;;;;;5004957;28;20983;-71
2023/07/18 08:12:37;;;;;;;4.60;2.43;;;22.30;91.30;;;;;;5003918;28;20443;-72
2023/07/18 08:15:07;;;;;;;7.13;2.73;;;22.40;85.50;;;;;;5000378;28;20429;-70
2023/07/18 08:17:35;;;;;;;3.13;2.57;;;22.50;86.70;;;;;;5008131;28;21061;-70
2023/07/18 08:20:07;;;;;;;3.30;3.00;;;22.60;87.90;;;;;;5005373;28;20515;-66
2023/07/18 08:22:35;;;;;;;3.70;2.30;;;22.70;87.60;;;;;;4998439;28;20883;-68
2023/07/18 08:25:04;;;;;;;3.90;2.40;;;22.90;84.00;;;;;;4999457;28;20537;-68
2023/07/18 08:27:32;;;;;;;4.80;2.63;;;22.90;85.10;;;;;;5004842;28;20438;-69
2023/07/18 08:30:01;;;;;;;4.67;2.13;;;23.10;83.20;;;;;;5002378;28;20490;-69
2023/07/18 08:32:30;;;;;;;4.33;2.60;;;23.10;82.00;;;;;;5000728;28;20438;-69
2023/07/18 08:34:57;;;;;;;5.20;2.50;;;23.10;80.60;;;;;;4998729;28;20446;-70
2023/07/18 08:37:25;;;;;;;2.80;2.33;;;23.20;77.30;;;;;;4990949;28;20451;-70
2023/07/18 08:39:53;;;;;;;4.00;2.67;;;23.30;79.40;;;;;;5005554;28;20575;-70
2023/07/18 08:42:25;;;;;;;3.03;2.23;;;23.50;76.30;;;;;;5003686;28;20541;-69
2023/07/18 08:44:54;;;;;;;3.27;2.37;;;23.70;73.80;;;;;;5010874;28;20512;-71
2023/07/18 08:47:25;;;;;;;5.13;3.47;;;23.70;74.90;;;;;;5015418;28;20532;-71
2023/07/18 08:49:54;;;;;;;6.40;2.57;;;23.70;72.90;;;;;;5006364;28;20459;-70
2023/07/18 08:52:22;;;;;;;2.67;1.70;;;23.80;73.80;;;;;;5000406;28;20437;-71
2023/07/18 08:54:50;;;;;;;5.20;3.13;;;24.00;73.80;;;;;;4999672;28;20454;-71
2023/07/18 08:57:20;;;;;;;5.30;2.67;;;24.10;71.00;;;;;;4990225;28;20439;-71
2023/07/18 08:59:49;;;;;;;5.63;2.83;;;24.20;69.60;;;;;;4989873;28;20510;-70
2023/07/18 09:02:17;;;;;;;3.90;2.57;;;24.20;70.00;;;;;;4989753;28;20470;-70
2023/07/18 09:04:47;;;;;;;3.87;2.20;;;24.40;69.10;;;;;;4996207;28;20456;-71
2023/07/18 09:07:15;;;;;;;6.47;2.40;;;24.50;67.00;;;;;;5004050;28;20524;-70
2023/07/18 09:09:46;;;;;;;3.27;2.10;;;24.60;62.30;;;;;;5006541;28;20469;-70
2023/07/18 09:12:15;;;;;;;4.20;2.47;;;24.60;65.10;;;;;;5003766;28;20451;-73
2023/07/18 09:14:43;;;;;;;3.73;2.33;;;24.70;65.80;;;;;;4999797;28;20442;-71
2023/07/18 09:17:11;;;;;;;2.93;2.07;;;24.80;59.50;;;;;;5005854;28;20477;-71
2023/07/18 09:19:42;;;;;;;2.80;2.27;;;24.70;60.30;;;;;;4996144;28;20482;-71
2023/07/18 09:22:13;;;;;;;6.13;3.07;;;24.80;59.00;;;;;;4996295;28;20493;-70
2023/07/18 09:24:41;;;;;;;2.87;2.20;;;24.90;59.80;;;;;;5007576;28;20447;-70
2023/07/18 09:27:16;;;;;;;3.87;2.20;;;25.00;59.40;;;;;;5004997;28;20487;-71
2023/07/18 09:29:45;;;;;;;3.33;2.40;;;25.30;61.80;;;;;;5001573;28;20873;-70
2023/07/18 09:32:17;;;;;;;2.80;2.20;;;25.60;58.50;;;;;;5008729;28;20488;-69
2023/07/18 09:34:55;;;;;;;3.90;2.30;;;25.70;57.40;;;;;;5013279;28;20454;-70
2023/07/18 09:37:25;;;;;;;4.87;2.50;;;25.80;56.10;;;;;;5005391;28;20449;-70
2023/07/18 09:39:54;;;;;;;4.57;2.10;;;26.00;57.90;;;;;;5019477;28;20480;-70
2023/07/18 09:42:24;;;;;;;5.30;3.07;;;26.10;57.70;;;;;;5034186;28;20452;-71
2023/07/18 09:44:56;;;;;;;3.30;3.00;;;26.20;58.10;;;;;;5006571;28;20449;-69
2023/07/18 09:47:33;;;;;;;3.60;2.47;;;26.50;59.30;;;;;;5006406;28;21009;-68
2023/07/18 09:50:01;;;;;;;5.60;2.77;;;26.70;53.80;;;;;;5009822;28;21331;-67
2023/07/18 09:52:35;;;;;;;2.70;2.30;;;26.90;54.50;;;;;;5007792;28;20446;-69
2023/07/18 09:55:07;;;;;;;4.80;2.50;;;27.10;53.10;;;;;;4996324;28;20430;-67
2023/07/18 09:57:37;;;;;;;3.00;2.70;;;27.70;55.40;;;;;;4996310;28;20440;-69
2023/07/18 10:00:10;;;;;;;3.80;3.00;;;28.40;56.90;;;;;;4996515;28;20577;-69
2023/07/18 10:02:39;;;;;;;4.23;2.80;;;29.00;53.50;;;;;;4996121;28;20493;-69
2023/07/18 10:05:10;;;;;;;5.70;3.80;;;29.70;51.00;;;;;;4996454;28;20446;-68
2023/07/18 10:07:40;;;;;;;3.37;2.80;;;30.10;50.60;;;;;;4996385;28;20455;-68
2023/07/18 10:10:09;;;;;;;4.53;2.77;;;30.40;49.60;;;;;;4996591;28;20827;-68
2023/07/18 10:12:38;;;;;;;5.80;3.23;;;30.30;47.80;;;;;;4996034;28;20458;-68
2023/07/18 10:15:06;;;;;;;3.00;2.70;;;29.40;48.60;;;;;;4996221;28;20529;-69
2023/07/18 10:17:36;;;;;;;5.47;2.97;;;29.10;49.50;;;;;;4996314;28;20505;-67
2023/07/18 10:20:11;;;;;;;4.13;2.70;;;28.50;49.50;;;;;;4996311;28;20521;-69
2023/07/18 10:22:48;;;;;;;4.60;3.20;;;27.90;51.20;;;;;;4999109;28;20511;-68
2023/07/18 10:25:18;;;;;;;5.43;3.27;;;27.60;51.60;;;;;;4998704;28;20483;-69
2023/07/18 10:27:48;;;;;;;5.43;3.27;;;27.50;54.10;;;;;;4994416;28;20446;-67
2023/07/18 10:30:18;;;;;;;5.13;3.20;;;27.60;53.60;;;;;;4993167;28;20545;-67
2023/07/18 10:32:55;;;;;;;6.47;4.40;;;27.50;50.70;;;;;;5003803;28;20438;-68
2023/07/18 10:35:26;;;;;;;4.33;3.30;;;27.20;51.20;;;;;;5012935;28;20678;-67
2023/07/18 10:37:57;;;;;;;4.93;3.00;;;26.70;52.50;;;;;;5012790;28;20460;-68
2023/07/18 10:40:34;;;;;;;4.27;3.87;;;26.50;53.60;;;;;;5011749;28;20565;-67
2023/07/18 10:43:03;;;;;;;4.93;4.00;;;26.30;55.20;;;;;;5012018;28;20434;-68
2023/07/18 10:45:36;;;;;;;4.20;3.37;;;26.00;55.20;;;;;;5008305;28;20446;-68
2023/07/18 10:48:12;;;;;;;6.00;3.37;;;25.70;55.70;;;;;;5011604;28;20529;-68
2023/07/18 10:50:44;;;;;;;6.60;3.10;;;25.70;55.80;;;;;;5012157;28;20454;-67
2023/07/18 10:53:15;;;;;;;4.60;3.20;;;26.30;55.20;;;;;;5011631;28;20940;-68
2023/07/18 10:55:44;;;;;;;4.60;4.13;;;27.20;52.80;;;;;;5011932;28;20519;-69
2023/07/18 10:58:16;;;;;;;5.27;3.37;;;27.80;51.00;;;;;;5012140;28;20465;-68
2023/07/18 11:00:44;;;;;;;7.17;3.60;;;27.80;51.00;;;;;;5012101;28;20560;-68
2023/07/18 11:03:23;;;;;;;4.83;3.53;;;27.90;53.50;;;;;;5014435;28;20433;-68
2023/07/18 11:05:52;;;;;;;4.07;3.60;;;28.30;50.00;;;;;;5031818;28;20467;-68
2023/07/18 11:08:25;;;;;;;6.13;3.57;;;28.60;51.40;;;;;;5031579;28;20547;-68
2023/07/18 11:10:57;;;;;;;3.50;3.13;;;29.00;51.20;;;;;;5028458;28;20493;-68
2023/07/18 11:13:30;;;;;;;4.60;3.80;;;29.10;49.20;;;;;;4999009;28;20446;-68
2023/07/18 11:15:59;;;;;;;9.13;3.30;;;29.00;50.10;;;;;;4991856;28;20453;-67
2023/07/18 11:18:32;;;;;;;5.20;3.60;;;28.70;49.90;;;;;;5006283;28;20473;-68
2023/07/18 11:21:05;;;;;;;4.20;3.70;;;28.30;50.00;;;;;;4991991;28;20551;-68
2023/07/18 11:23:38;;;;;;;4.97;3.57;;;27.80;51.80;;;;;;4998932;28;20554;-68
2023/07/18 11:26:12;;;;;;;7.57;3.80;;;27.30;52.10;;;;;;4991757;28;20466;-68
2023/07/18 11:28:41;;;;;;;5.00;3.73;;;27.00;53.30;;;;;;4992012;28;20866;-67
2023/07/18 11:31:22;;;;;;;7.10;4.43;;;26.80;52.40;;;;;;4991754;28;20473;-68
2023/07/18 11:34:08;;;;;;;4.10;3.10;;;26.80;54.70;;;;;;5004674;28;20453;-68
2023/07/18 11:36:40;;;;;;;5.13;3.47;;;26.80;54.40;;;;;;5005347;28;20457;-69
2023/07/18 11:39:19;;;;;;;4.47;3.40;;;26.80;55.50;;;;;;5016298;28;20503;-68
2023/07/18 11:41:51;;;;;;;9.63;3.67;;;26.70;58.40;;;;;;5011235;28;20427;-68
2023/07/18 11:44:26;;;;;;;4.70;3.50;;;26.70;54.60;;;;;;5011297;28;20470;-67
2023/07/18 11:46:55;;;;;;;4.30;3.73;;;26.60;55.40;;;;;;4997946;28;20525;-68
2023/07/18 11:49:34;;;;;;;5.40;3.93;;;26.40;57.10;;;;;;4994942;28;20461;-70
2023/07/18 11:52:03;;;;;;;3.90;3.50;;;26.20;59.30;;;;;;5009418;28;20464;-68
2023/07/18 11:54:34;;;;;;;4.10;3.30;;;26.20;58.20;;;;;;5004295;28;20453;-67
2023/07/18 11:57:03;;;;;;;5.07;3.73;;;26.10;60.30;;;;;;5007080;28;20429;-68
2023/07/18 11:59:32;;;;;;;6.50;3.37;;;26.30;62.70;;;;;;5010252;28;21269;-68
2023/07/18 12:02:00;;;;;;;4.87;3.80;;;26.50;60.70;;;;;;5013201;28;20500;-70
2023/07/18 12:04:28;;;;;;;4.53;3.53;;;26.80;59.00;;;;;;5010614;28;21023;-69
2023/07/18 12:06:57;;;;;;;6.20;3.73;;;27.30;57.50;;;;;;5010437;28;20461;-69
2023/07/18 12:09:25;;;;;;;5.63;3.03;;;27.70;58.60;;;;;;5010767;28;20485;-68
2023/07/18 12:11:55;;;;;;;4.50;3.60;;;28.10;55.60;;;;;;5010873;28;20438;-70
2023/07/18 12:14:22;;;;;;;4.47;3.50;;;28.50;56.40;;;;;;5008174;28;20450;-68
2023/07/18 12:16:51;;;;;;;4.33;3.93;;;28.70;55.50;;;;;;5006680;28;20443;-68
2023/07/18 12:19:20;;;;;;;4.37;3.90;;;29.20;55.10;;;;;;5010721;28;20472;-68
2023/07/18 12:21:49;;;;;;;5.77;3.77;;;29.50;53.90;;;;;;5009991;28;20473;-69
2023/07/18 12:24:18;;;;;;;5.00;3.57;;;29.70;54.10;;;;;;5010567;28;20450;-69
2023/07/18 12:26:46;;;;;;;3.40;2.90;;;29.90;52.80;;;;;;5010528;28;20468;-68
2023/07/18 12:29:16;;;;;;;3.30;2.97;;;30.10;53.60;;;;;;5010666;28;21055;-68
2023/07/18 12:31:48;;;;;;;3.93;3.03;;;30.40;53.00;;;;;;5015206;28;20802;-71
2023/07/18 12:34:17;;;;;;;4.33;3.93;;;30.80;51.20;;;;;;5010544;28;20440;-71
2023/07/18 12:36:45;;;;;;;4.20;3.77;;;31.40;52.50;;;;;;5010134;28;20504;-71
2023/07/18 12:39:14;;;;;;;4.30;3.50;;;31.70;49.70;;;;;;5010138;28;20512;-71
2023/07/18 12:41:42;;;;;;;4.70;3.27;;;31.80;51.50;;;;;;5009443;28;20486;-72
2023/07/18 12:44:18;;;;;;;3.87;3.17;;;32.00;48.90;;;;;;5003371;28;20493;-72
2023/07/18 12:46:46;;;;;;;4.50;4.10;;;32.20;50.20;;;;;;5001190;28;20436;-71
2023/07/18 12:49:14;;;;;;;3.83;3.50;;;32.70;53.80;;;;;;5005086;28;20457;-72
2023/07/18 12:52:02;;;;;;;4.67;4.27;;;33.00;50.50;;;;;;4999953;28;20858;-72
2023/07/18 12:54:30;;;;;;;5.43;4.00;;;33.30;47.90;;;;;;5002020;28;20438;-72
2023/07/18 12:56:59;;;;;;;4.97;4.10;;;33.40;49.40;;;;;;5009794;28;20863;-72